sensor_id;sensor_type;location;lat;lon;timestamp;P1;durP1;ratioP1;P2;durP2;ratioP2
19343;SDS011;9808;52.402;16.678;2023-10-09T00:01:04;19.53;;;9.47;;
19343;SDS011;9808;52.402;16.678;2023-10-09T00:03:36;21.63;;;9.33;;
19343;SDS011;9808;52.402;16.678;2023-10-09T00:06:04;19.03;;;8.43;;
19343;SDS011;9808;52.402;16.678;2023-10-09T00:08:32;17.43;;;8.43;;
19343;SDS011;9808;52.402;16.678;2023-10-09T00:11:01;18.73;;;8.77;;
19343;SDS011;9808;52.402;16.678;2023-10-09T00:13:40;22.33;;;8.80;;
19343;SDS011;9808;52.402;16.678;2023-10-09T00:16:18;23.63;;;8.67;;
19343;SDS011;9808;52.402;16.678;2023-10-09T00:19:03;19.40;;;8.70;;
19343;SDS011;9808;52.402;16.678;2023-10-09T00:21:47;18.07;;;7.90;;
19343;SDS011;9808;52.402;16.678;2023-10-09T00:24:15;25.87;;;8.80;;
19343;SDS011;9808;52.402;16.678;2023-10-09T00:26:50;20.37;;;8.97;;
19343;SDS011;9808;52.402;16.678;2023-10-09T00:29:18;21.50;;;8.43;;
19343;SDS011;9808;52.402;16.678;2023-10-09T00:31:50;19.67;;;8.27;;
19343;SDS011;9808;52.402;16.678;2023-10-09T00:34:21;20.07;;;9.23;;
19343;SDS011;9808;52.402;16.678;2023-10-09T00:36:48;22.43;;;9.03;;
19343;SDS011;9808;52.402;16.678;2023-10-09T00:39:20;19.27;;;8.27;;
19343;SDS011;9808;52.402;16.678;2023-10-09T00:42:12;20.57;;;7.90;;
19343;SDS011;9808;52.402;16.678;2023-10-09T00:44:41;22.90;;;9.03;;
19343;SDS011;9808;52.402;16.678;2023-10-09T00:47:09;19.93;;;9.23;;
19343;SDS011;9808;52.402;16.678;2023-10-09T00:49:49;19.57;;;8.67;;
19343;SDS011;9808;52.402;16.678;2023-10-09T00:52:20;19.23;;;9.27;;
19343;SDS011;9808;52.402;16.678;2023-10-09T00:54:58;20.90;;;8.83;;
19343;SDS011;9808;52.402;16.678;2023-10-09T00:57:50;21.03;;;9.37;;
19343;SDS011;9808;52.402;16.678;2023-10-09T01:00:24;23.97;;;10.87;;
19343;SDS011;9808;52.402;16.678;2023-10-09T01:03:10;22.60;;;10.00;;
19343;SDS011;9808;52.402;16.678;2023-10-09T01:05:47;22.07;;;9.77;;
19343;SDS011;9808;52.402;16.678;2023-10-09T01:08:18;22.10;;;10.13;;
19343;SDS011;9808;52.402;16.678;2023-10-09T01:11:05;26.67;;;11.03;;
19343;SDS011;9808;52.402;16.678;2023-10-09T01:13:40;27.40;;;9.37;;
19343;SDS011;9808;52.402;16.678;2023-10-09T01:16:17;23.77;;;10.53;;
19343;SDS011;9808;52.402;16.678;2023-10-09T01:18:45;20.43;;;9.47;;
19343;SDS011;9808;52.402;16.678;2023-10-09T01:21:16;20.30;;;9.23;;
19343;SDS011;9808;52.402;16.678;2023-10-09T01:23:45;17.33;;;8.60;;
19343;SDS011;9808;52.402;16.678;2023-10-09T01:26:34;17.77;;;8.63;;
19343;SDS011;9808;52.402;16.678;2023-10-09T01:29:16;17.80;;;8.33;;
19343;SDS011;9808;52.402;16.678;2023-10-09T01:34:25;19.90;;;8.63;;
19343;SDS011;9808;52.402;16.678;2023-10-09T01:37:09;20.77;;;8.40;;
19343;SDS011;9808;52.402;16.678;2023-10-09T01:39:47;21.10;;;9.30;;
19343;SDS011;9808;52.402;16.678;2023-10-09T01:42:15;19.33;;;8.17;;
19343;SDS011;9808;52.402;16.678;2023-10-09T01:45:01;20.53;;;8.23;;
19343;SDS011;9808;52.402;16.678;2023-10-09T01:47:38;18.70;;;7.90;;
19343;SDS011;9808;52.402;16.678;2023-10-09T01:50:06;15.40;;;7.17;;
19343;SDS011;9808;52.402;16.678;2023-10-09T01:52:51;13.70;;;6.70;;
19343;SDS011;9808;52.402;16.678;2023-10-09T01:55:19;16.60;;;7.70;;
19343;SDS011;9808;52.402;16.678;2023-10-09T01:58:05;16.77;;;7.60;;
19343;SDS011;9808;52.402;16.678;2023-10-09T02:00:43;18.10;;;8.57;;
19343;SDS011;9808;52.402;16.678;2023-10-09T02:03:15;18.60;;;9.13;;
19343;SDS011;9808;52.402;16.678;2023-10-09T02:05:43;17.67;;;9.03;;
19343;SDS011;9808;52.402;16.678;2023-10-09T02:08:10;20.70;;;9.33;;
19343;SDS011;9808;52.402;16.678;2023-10-09T02:10:39;24.30;;;10.20;;
19343;SDS011;9808;52.402;16.678;2023-10-09T02:13:06;20.97;;;9.73;;
19343;SDS011;9808;52.402;16.678;2023-10-09T02:15:36;21.40;;;9.57;;
19343;SDS011;9808;52.402;16.678;2023-10-09T02:20:51;18.93;;;8.57;;
19343;SDS011;9808;52.402;16.678;2023-10-09T02:23:42;17.20;;;8.60;;
19343;SDS011;9808;52.402;16.678;2023-10-09T02:26:23;17.73;;;8.10;;
19343;SDS011;9808;52.402;16.678;2023-10-09T02:29:06;15.90;;;6.67;;
19343;SDS011;9808;52.402;16.678;2023-10-09T02:31:40;23.23;;;8.07;;
19343;SDS011;9808;52.402;16.678;2023-10-09T02:34:13;15.27;;;7.60;;
19343;SDS011;9808;52.402;16.678;2023-10-09T02:36:43;15.10;;;6.67;;
19343;SDS011;9808;52.402;16.678;2023-10-09T02:39:15;15.17;;;6.40;;
19343;SDS011;9808;52.402;16.678;2023-10-09T02:41:56;17.70;;;7.17;;
19343;SDS011;9808;52.402;16.678;2023-10-09T02:44:28;15.80;;;7.13;;
19343;SDS011;9808;52.402;16.678;2023-10-09T02:47:05;14.83;;;6.37;;
19343;SDS011;9808;52.402;16.678;2023-10-09T02:49:38;14.93;;;6.03;;
19343;SDS011;9808;52.402;16.678;2023-10-09T02:52:06;18.47;;;6.20;;
19343;SDS011;9808;52.402;16.678;2023-10-09T02:54:34;11.67;;;5.87;;
19343;SDS011;9808;52.402;16.678;2023-10-09T02:57:02;13.50;;;5.40;;
19343;SDS011;9808;52.402;16.678;2023-10-09T02:59:34;11.90;;;5.93;;
19343;SDS011;9808;52.402;16.678;2023-10-09T03:02:05;11.63;;;5.27;;
19343;SDS011;9808;52.402;16.678;2023-10-09T03:04:32;11.93;;;5.83;;
19343;SDS011;9808;52.402;16.678;2023-10-09T03:07:00;11.80;;;5.57;;
19343;SDS011;9808;52.402;16.678;2023-10-09T03:09:27;14.30;;;6.93;;
19343;SDS011;9808;52.402;16.678;2023-10-09T03:11:56;12.07;;;5.87;;
19343;SDS011;9808;52.402;16.678;2023-10-09T03:14:30;11.57;;;5.63;;
19343;SDS011;9808;52.402;16.678;2023-10-09T03:16:58;11.97;;;5.40;;
19343;SDS011;9808;52.402;16.678;2023-10-09T03:19:26;13.40;;;5.50;;
19343;SDS011;9808;52.402;16.678;2023-10-09T03:21:55;13.30;;;6.20;;
19343;SDS011;9808;52.402;16.678;2023-10-09T03:24:25;16.60;;;6.10;;
19343;SDS011;9808;52.402;16.678;2023-10-09T03:27:00;10.33;;;5.47;;
19343;SDS011;9808;52.402;16.678;2023-10-09T03:29:27;14.47;;;6.00;;
19343;SDS011;9808;52.402;16.678;2023-10-09T03:31:54;15.03;;;6.23;;
19343;SDS011;9808;52.402;16.678;2023-10-09T03:34:23;13.20;;;6.27;;
19343;SDS011;9808;52.402;16.678;2023-10-09T03:36:50;13.03;;;6.37;;
19343;SDS011;9808;52.402;16.678;2023-10-09T03:39:30;11.63;;;6.10;;
19343;SDS011;9808;52.402;16.678;2023-10-09T03:42:07;13.43;;;6.87;;
19343;SDS011;9808;52.402;16.678;2023-10-09T03:44:46;14.17;;;5.77;;
19343;SDS011;9808;52.402;16.678;2023-10-09T03:47:19;14.63;;;6.27;;
19343;SDS011;9808;52.402;16.678;2023-10-09T03:49:50;20.93;;;7.80;;
19343;SDS011;9808;52.402;16.678;2023-10-09T03:52:18;20.00;;;7.97;;
19343;SDS011;9808;52.402;16.678;2023-10-09T03:54:45;14.67;;;6.23;;
19343;SDS011;9808;52.402;16.678;2023-10-09T03:57:13;18.13;;;6.87;;
19343;SDS011;9808;52.402;16.678;2023-10-09T03:59:46;18.93;;;6.17;;
19343;SDS011;9808;52.402;16.678;2023-10-09T04:02:14;12.80;;;5.20;;
19343;SDS011;9808;52.402;16.678;2023-10-09T04:04:42;10.10;;;4.67;;
19343;SDS011;9808;52.402;16.678;2023-10-09T04:07:14;11.50;;;4.33;;
19343;SDS011;9808;52.402;16.678;2023-10-09T04:09:44;16.47;;;6.03;;
19343;SDS011;9808;52.402;16.678;2023-10-09T04:12:14;19.57;;;7.00;;
19343;SDS011;9808;52.402;16.678;2023-10-09T04:15:02;17.90;;;7.13;;
19343;SDS011;9808;52.402;16.678;2023-10-09T04:17:31;13.43;;;5.40;;
19343;SDS011;9808;52.402;16.678;2023-10-09T04:20:00;19.17;;;7.03;;
19343;SDS011;9808;52.402;16.678;2023-10-09T04:22:46;16.97;;;7.53;;
19343;SDS011;9808;52.402;16.678;2023-10-09T04:25:17;12.97;;;5.90;;
19343;SDS011;9808;52.402;16.678;2023-10-09T04:27:56;16.57;;;5.90;;
19343;SDS011;9808;52.402;16.678;2023-10-09T04:30:45;15.57;;;7.00;;
19343;SDS011;9808;52.402;16.678;2023-10-09T04:33:13;16.30;;;6.27;;
19343;SDS011;9808;52.402;16.678;2023-10-09T04:38:45;10.90;;;5.10;;
19343;SDS011;9808;52.402;16.678;2023-10-09T04:41:22;8.07;;;3.70;;
19343;SDS011;9808;52.402;16.678;2023-10-09T04:44:00;10.97;;;3.93;;
19343;SDS011;9808;52.402;16.678;2023-10-09T04:46:47;12.40;;;2.73;;
19343;SDS011;9808;52.402;16.678;2023-10-09T04:49:35;6.23;;;2.33;;
19343;SDS011;9808;52.402;16.678;2023-10-09T04:52:15;5.80;;;1.97;;
19343;SDS011;9808;52.402;16.678;2023-10-09T04:55:06;4.17;;;1.83;;
19343;SDS011;9808;52.402;16.678;2023-10-09T04:57:40;6.27;;;2.27;;
19343;SDS011;9808;52.402;16.678;2023-10-09T05:00:17;7.30;;;2.40;;
19343;SDS011;9808;52.402;16.678;2023-10-09T05:02:52;5.23;;;2.00;;
19343;SDS011;9808;52.402;16.678;2023-10-09T05:05:23;6.47;;;2.50;;
19343;SDS011;9808;52.402;16.678;2023-10-09T05:10:54;6.50;;;2.40;;
19343;SDS011;9808;52.402;16.678;2023-10-09T05:13:25;5.77;;;2.23;;
19343;SDS011;9808;52.402;16.678;2023-10-09T05:16:05;7.43;;;2.60;;
19343;SDS011;9808;52.402;16.678;2023-10-09T05:18:39;5.47;;;2.17;;
19343;SDS011;9808;52.402;16.678;2023-10-09T05:21:08;6.20;;;2.37;;
19343;SDS011;9808;52.402;16.678;2023-10-09T05:23:54;5.03;;;2.40;;
19343;SDS011;9808;52.402;16.678;2023-10-09T05:26:44;5.17;;;2.13;;
19343;SDS011;9808;52.402;16.678;2023-10-09T05:29:16;7.17;;;2.40;;
19343;SDS011;9808;52.402;16.678;2023-10-09T05:31:59;5.13;;;2.20;;
19343;SDS011;9808;52.402;16.678;2023-10-09T05:34:54;9.13;;;2.37;;
19343;SDS011;9808;52.402;16.678;2023-10-09T05:37:29;6.23;;;2.40;;
19343;SDS011;9808;52.402;16.678;2023-10-09T05:40:04;5.23;;;2.40;;
19343;SDS011;9808;52.402;16.678;2023-10-09T05:42:49;4.73;;;2.00;;
19343;SDS011;9808;52.402;16.678;2023-10-09T05:45:26;5.53;;;2.60;;
19343;SDS011;9808;52.402;16.678;2023-10-09T05:48:13;5.73;;;2.30;;
19343;SDS011;9808;52.402;16.678;2023-10-09T05:50:40;4.73;;;2.30;;
19343;SDS011;9808;52.402;16.678;2023-10-09T05:53:26;4.67;;;2.13;;
19343;SDS011;9808;52.402;16.678;2023-10-09T05:56:12;7.77;;;3.10;;
19343;SDS011;9808;52.402;16.678;2023-10-09T05:58:58;6.97;;;2.83;;
19343;SDS011;9808;52.402;16.678;2023-10-09T06:01:44;8.07;;;2.87;;
19343;SDS011;9808;52.402;16.678;2023-10-09T06:04:30;11.40;;;3.50;;
19343;SDS011;9808;52.402;16.678;2023-10-09T06:07:21;6.87;;;3.27;;
19343;SDS011;9808;52.402;16.678;2023-10-09T06:10:07;11.23;;;3.60;;
19343;SDS011;9808;52.402;16.678;2023-10-09T06:12:45;8.63;;;3.83;;
19343;SDS011;9808;52.402;16.678;2023-10-09T06:15:35;9.13;;;3.53;;
19343;SDS011;9808;52.402;16.678;2023-10-09T06:18:22;7.63;;;3.53;;
19343;SDS011;9808;52.402;16.678;2023-10-09T06:20:58;7.37;;;3.10;;
19343;SDS011;9808;52.402;16.678;2023-10-09T06:23:55;8.17;;;3.63;;
19343;SDS011;9808;52.402;16.678;2023-10-09T06:26:42;7.27;;;3.53;;
19343;SDS011;9808;52.402;16.678;2023-10-09T06:29:28;6.33;;;2.67;;
19343;SDS011;9808;52.402;16.678;2023-10-09T06:32:05;6.87;;;3.10;;
19343;SDS011;9808;52.402;16.678;2023-10-09T06:34:49;7.47;;;3.00;;
19343;SDS011;9808;52.402;16.678;2023-10-09T06:37:23;6.40;;;3.13;;
19343;SDS011;9808;52.402;16.678;2023-10-09T06:39:51;8.37;;;3.30;;
19343;SDS011;9808;52.402;16.678;2023-10-09T06:45:01;6.00;;;2.90;;
19343;SDS011;9808;52.402;16.678;2023-10-09T06:47:47;6.83;;;2.93;;
19343;SDS011;9808;52.402;16.678;2023-10-09T06:50:47;11.10;;;3.10;;
19343;SDS011;9808;52.402;16.678;2023-10-09T06:53:33;7.47;;;3.60;;
19343;SDS011;9808;52.402;16.678;2023-10-09T06:56:33;8.97;;;3.33;;
19343;SDS011;9808;52.402;16.678;2023-10-09T06:59:01;7.13;;;3.50;;
19343;SDS011;9808;52.402;16.678;2023-10-09T07:01:48;6.77;;;3.23;;
19343;SDS011;9808;52.402;16.678;2023-10-09T07:04:54;6.23;;;3.23;;
19343;SDS011;9808;52.402;16.678;2023-10-09T07:07:21;9.20;;;3.43;;
19343;SDS011;9808;52.402;16.678;2023-10-09T07:09:51;7.87;;;3.57;;
19343;SDS011;9808;52.402;16.678;2023-10-09T07:12:37;6.37;;;3.20;;
19343;SDS011;9808;52.402;16.678;2023-10-09T07:15:09;9.40;;;3.63;;
19343;SDS011;9808;52.402;16.678;2023-10-09T07:18:09;7.17;;;3.20;;
19343;SDS011;9808;52.402;16.678;2023-10-09T07:20:50;8.17;;;3.53;;
19343;SDS011;9808;52.402;16.678;2023-10-09T07:23:27;10.53;;;3.50;;
19343;SDS011;9808;52.402;16.678;2023-10-09T07:26:03;6.87;;;3.23;;
19343;SDS011;9808;52.402;16.678;2023-10-09T07:28:45;6.73;;;3.03;;
19343;SDS011;9808;52.402;16.678;2023-10-09T07:31:18;7.03;;;3.10;;
19343;SDS011;9808;52.402;16.678;2023-10-09T07:33:53;6.47;;;3.10;;
19343;SDS011;9808;52.402;16.678;2023-10-09T07:36:24;7.33;;;3.20;;
19343;SDS011;9808;52.402;16.678;2023-10-09T07:39:02;10.97;;;2.87;;
19343;SDS011;9808;52.402;16.678;2023-10-09T07:41:40;6.97;;;3.03;;
19343;SDS011;9808;52.402;16.678;2023-10-09T07:44:11;12.00;;;4.17;;
19343;SDS011;9808;52.402;16.678;2023-10-09T07:47:03;7.60;;;3.90;;
19343;SDS011;9808;52.402;16.678;2023-10-09T07:49:43;7.63;;;3.47;;
19343;SDS011;9808;52.402;16.678;2023-10-09T07:52:21;7.50;;;3.07;;
19343;SDS011;9808;52.402;16.678;2023-10-09T07:54:48;4.73;;;2.27;;
19343;SDS011;9808;52.402;16.678;2023-10-09T07:57:16;7.57;;;3.03;;
19343;SDS011;9808;52.402;16.678;2023-10-09T07:59:44;6.50;;;2.13;;
19343;SDS011;9808;52.402;16.678;2023-10-09T08:02:39;5.97;;;2.37;;
19343;SDS011;9808;52.402;16.678;2023-10-09T08:05:06;11.43;;;2.73;;
19343;SDS011;9808;52.402;16.678;2023-10-09T08:07:45;7.70;;;2.47;;
19343;SDS011;9808;52.402;16.678;2023-10-09T08:10:33;4.60;;;1.93;;
19343;SDS011;9808;52.402;16.678;2023-10-09T08:13:19;5.17;;;1.83;;
19343;SDS011;9808;52.402;16.678;2023-10-09T08:16:06;5.53;;;2.03;;
19343;SDS011;9808;52.402;16.678;2023-10-09T08:18:43;4.83;;;1.97;;
19343;SDS011;9808;52.402;16.678;2023-10-09T08:21:11;6.40;;;2.80;;
19343;SDS011;9808;52.402;16.678;2023-10-09T08:23:38;7.97;;;2.50;;
19343;SDS011;9808;52.402;16.678;2023-10-09T08:26:16;5.17;;;2.40;;
19343;SDS011;9808;52.402;16.678;2023-10-09T08:28:55;7.77;;;2.63;;
19343;SDS011;9808;52.402;16.678;2023-10-09T08:31:41;7.00;;;2.77;;
19343;SDS011;9808;52.402;16.678;2023-10-09T08:34:12;9.83;;;3.50;;
19343;SDS011;9808;52.402;16.678;2023-10-09T08:36:56;9.83;;;3.17;;
19343;SDS011;9808;52.402;16.678;2023-10-09T08:39:23;9.30;;;2.70;;
19343;SDS011;9808;52.402;16.678;2023-10-09T08:41:56;5.80;;;1.93;;
19343;SDS011;9808;52.402;16.678;2023-10-09T08:44:30;5.03;;;2.20;;
19343;SDS011;9808;52.402;16.678;2023-10-09T08:46:59;7.10;;;2.30;;
19343;SDS011;9808;52.402;16.678;2023-10-09T08:49:26;5.83;;;2.70;;
19343;SDS011;9808;52.402;16.678;2023-10-09T08:51:54;4.90;;;2.10;;
19343;SDS011;9808;52.402;16.678;2023-10-09T08:54:22;4.57;;;1.67;;
19343;SDS011;9808;52.402;16.678;2023-10-09T08:56:49;8.43;;;3.37;;
19343;SDS011;9808;52.402;16.678;2023-10-09T08:59:17;5.70;;;2.57;;
19343;SDS011;9808;52.402;16.678;2023-10-09T09:01:48;5.67;;;2.00;;
19343;SDS011;9808;52.402;16.678;2023-10-09T09:07:28;5.10;;;1.90;;
19343;SDS011;9808;52.402;16.678;2023-10-09T09:09:58;6.77;;;2.70;;
19343;SDS011;9808;52.402;16.678;2023-10-09T09:12:44;6.63;;;2.40;;
19343;SDS011;9808;52.402;16.678;2023-10-09T09:15:14;5.93;;;2.47;;
19343;SDS011;9808;52.402;16.678;2023-10-09T09:17:46;8.47;;;2.67;;
19343;SDS011;9808;52.402;16.678;2023-10-09T09:20:23;4.70;;;2.20;;
19343;SDS011;9808;52.402;16.678;2023-10-09T09:22:54;5.67;;;2.07;;
19343;SDS011;9808;52.402;16.678;2023-10-09T09:25:39;7.07;;;2.60;;
19343;SDS011;9808;52.402;16.678;2023-10-09T09:28:13;5.07;;;2.17;;
19343;SDS011;9808;52.402;16.678;2023-10-09T09:30:46;8.60;;;2.77;;
19343;SDS011;9808;52.402;16.678;2023-10-09T09:35:59;6.67;;;2.80;;
19343;SDS011;9808;52.402;16.678;2023-10-09T09:38:32;6.30;;;2.43;;
19343;SDS011;9808;52.402;16.678;2023-10-09T09:41:08;5.80;;;2.07;;
19343;SDS011;9808;52.402;16.678;2023-10-09T09:43:36;5.13;;;1.97;;
19343;SDS011;9808;52.402;16.678;2023-10-09T09:46:07;6.60;;;2.20;;
19343;SDS011;9808;52.402;16.678;2023-10-09T09:48:38;3.70;;;1.70;;
19343;SDS011;9808;52.402;16.678;2023-10-09T09:51:05;5.43;;;2.00;;
19343;SDS011;9808;52.402;16.678;2023-10-09T09:53:34;5.43;;;2.07;;
19343;SDS011;9808;52.402;16.678;2023-10-09T09:56:02;5.43;;;2.30;;
19343;SDS011;9808;52.402;16.678;2023-10-09T09:58:30;4.87;;;1.87;;
19343;SDS011;9808;52.402;16.678;2023-10-09T10:01:11;3.60;;;1.47;;
19343;SDS011;9808;52.402;16.678;2023-10-09T10:03:47;5.77;;;1.90;;
19343;SDS011;9808;52.402;16.678;2023-10-09T10:06:19;5.67;;;2.40;;
19343;SDS011;9808;52.402;16.678;2023-10-09T10:08:48;5.27;;;1.90;;
19343;SDS011;9808;52.402;16.678;2023-10-09T10:14:06;6.97;;;1.90;;
19343;SDS011;9808;52.402;16.678;2023-10-09T10:19:24;4.77;;;2.00;;
19343;SDS011;9808;52.402;16.678;2023-10-09T10:21:51;5.63;;;1.97;;
19343;SDS011;9808;52.402;16.678;2023-10-09T10:29:47;5.60;;;1.50;;
19343;SDS011;9808;52.402;16.678;2023-10-09T10:32:16;5.97;;;2.10;;
19343;SDS011;9808;52.402;16.678;2023-10-09T10:34:52;6.03;;;1.50;;
19343;SDS011;9808;52.402;16.678;2023-10-09T10:37:36;5.07;;;1.63;;
19343;SDS011;9808;52.402;16.678;2023-10-09T10:40:28;6.43;;;2.13;;
19343;SDS011;9808;52.402;16.678;2023-10-09T10:43:05;4.33;;;1.70;;
19343;SDS011;9808;52.402;16.678;2023-10-09T10:45:39;3.50;;;1.40;;
19343;SDS011;9808;52.402;16.678;2023-10-09T10:48:11;6.97;;;2.30;;
19343;SDS011;9808;52.402;16.678;2023-10-09T10:51:04;3.63;;;1.70;;
19343;SDS011;9808;52.402;16.678;2023-10-09T10:53:31;2.90;;;1.58;;
19343;SDS011;9808;52.402;16.678;2023-10-09T10:56:14;3.93;;;1.67;;
19343;SDS011;9808;52.402;16.678;2023-10-09T10:58:41;8.00;;;3.15;;
19343;SDS011;9808;52.402;16.678;2023-10-09T11:01:21;11.67;;;4.37;;
19343;SDS011;9808;52.402;16.678;2023-10-09T11:03:52;8.50;;;3.30;;
19343;SDS011;9808;52.402;16.678;2023-10-09T11:06:30;9.13;;;4.17;;
19343;SDS011;9808;52.402;16.678;2023-10-09T11:09:04;5.20;;;2.40;;
19343;SDS011;9808;52.402;16.678;2023-10-09T11:11:48;5.40;;;2.13;;
19343;SDS011;9808;52.402;16.678;2023-10-09T11:14:16;5.37;;;2.27;;
19343;SDS011;9808;52.402;16.678;2023-10-09T11:16:50;6.80;;;2.50;;
19343;SDS011;9808;52.402;16.678;2023-10-09T11:19:24;7.67;;;2.00;;
19343;SDS011;9808;52.402;16.678;2023-10-09T11:21:58;4.53;;;2.07;;
19343;SDS011;9808;52.402;16.678;2023-10-09T11:24:32;7.53;;;2.00;;
19343;SDS011;9808;52.402;16.678;2023-10-09T11:27:01;4.35;;;1.80;;
19343;SDS011;9808;52.402;16.678;2023-10-09T11:29:33;4.83;;;1.80;;
19343;SDS011;9808;52.402;16.678;2023-10-09T11:32:14;7.27;;;2.63;;
19343;SDS011;9808;52.402;16.678;2023-10-09T11:34:46;5.23;;;2.07;;
19343;SDS011;9808;52.402;16.678;2023-10-09T11:37:20;5.67;;;2.37;;
19343;SDS011;9808;52.402;16.678;2023-10-09T11:39:57;5.60;;;2.23;;
19343;SDS011;9808;52.402;16.678;2023-10-09T11:42:27;5.67;;;2.73;;
19343;SDS011;9808;52.402;16.678;2023-10-09T11:45:05;7.47;;;2.70;;
19343;SDS011;9808;52.402;16.678;2023-10-09T11:47:47;11.10;;;3.37;;
19343;SDS011;9808;52.402;16.678;2023-10-09T11:53:10;7.27;;;3.17;;
19343;SDS011;9808;52.402;16.678;2023-10-09T11:55:50;5.40;;;2.30;;
19343;SDS011;9808;52.402;16.678;2023-10-09T11:58:31;7.07;;;3.00;;
19343;SDS011;9808;52.402;16.678;2023-10-09T12:00:59;8.48;;;3.13;;
19343;SDS011;9808;52.402;16.678;2023-10-09T12:03:32;7.60;;;3.30;;
19343;SDS011;9808;52.402;16.678;2023-10-09T12:06:02;9.32;;;3.78;;
19343;SDS011;9808;52.402;16.678;2023-10-09T12:08:38;11.93;;;3.67;;
19343;SDS011;9808;52.402;16.678;2023-10-09T12:11:09;7.65;;;3.10;;
19343;SDS011;9808;52.402;16.678;2023-10-09T12:13:38;5.72;;;2.85;;
19343;SDS011;9808;52.402;16.678;2023-10-09T12:16:05;14.65;;;4.28;;
19343;SDS011;9808;52.402;16.678;2023-10-09T12:18:41;6.68;;;2.88;;
19343;SDS011;9808;52.402;16.678;2023-10-09T12:21:09;5.43;;;2.50;;
19343;SDS011;9808;52.402;16.678;2023-10-09T12:23:42;8.98;;;3.40;;
19343;SDS011;9808;52.402;16.678;2023-10-09T12:26:13;5.28;;;2.30;;
19343;SDS011;9808;52.402;16.678;2023-10-09T12:28:41;5.75;;;2.35;;
19343;SDS011;9808;52.402;16.678;2023-10-09T12:31:13;6.90;;;2.93;;
19343;SDS011;9808;52.402;16.678;2023-10-09T12:33:41;5.57;;;2.67;;
19343;SDS011;9808;52.402;16.678;2023-10-09T12:36:12;5.53;;;2.70;;
19343;SDS011;9808;52.402;16.678;2023-10-09T12:38:46;6.00;;;2.58;;
19343;SDS011;9808;52.402;16.678;2023-10-09T12:41:19;8.20;;;2.70;;
19343;SDS011;9808;52.402;16.678;2023-10-09T12:44:00;7.55;;;2.28;;
19343;SDS011;9808;52.402;16.678;2023-10-09T12:46:28;7.35;;;2.00;;
19343;SDS011;9808;52.402;16.678;2023-10-09T12:49:04;7.72;;;2.90;;
19343;SDS011;9808;52.402;16.678;2023-10-09T12:51:32;6.22;;;2.28;;
19343;SDS011;9808;52.402;16.678;2023-10-09T12:53:59;4.33;;;2.00;;
19343;SDS011;9808;52.402;16.678;2023-10-09T12:56:30;5.23;;;2.03;;
19343;SDS011;9808;52.402;16.678;2023-10-09T12:59:04;5.85;;;1.95;;
19343;SDS011;9808;52.402;16.678;2023-10-09T13:01:33;4.67;;;1.97;;
19343;SDS011;9808;52.402;16.678;2023-10-09T13:04:10;4.40;;;1.80;;
19343;SDS011;9808;52.402;16.678;2023-10-09T13:06:43;5.37;;;2.40;;
19343;SDS011;9808;52.402;16.678;2023-10-09T13:09:14;5.73;;;2.37;;
19343;SDS011;9808;52.402;16.678;2023-10-09T13:11:42;3.78;;;1.70;;
19343;SDS011;9808;52.402;16.678;2023-10-09T13:14:10;4.60;;;1.80;;
19343;SDS011;9808;52.402;16.678;2023-10-09T13:16:44;5.80;;;2.17;;
19343;SDS011;9808;52.402;16.678;2023-10-09T13:19:12;3.88;;;1.90;;
19343;SDS011;9808;52.402;16.678;2023-10-09T13:21:39;4.85;;;2.28;;
19343;SDS011;9808;52.402;16.678;2023-10-09T13:24:07;6.93;;;2.40;;
19343;SDS011;9808;52.402;16.678;2023-10-09T13:26:43;9.77;;;2.83;;
19343;SDS011;9808;52.402;16.678;2023-10-09T13:29:17;6.63;;;2.40;;
19343;SDS011;9808;52.402;16.678;2023-10-09T13:31:51;5.63;;;2.37;;
19343;SDS011;9808;52.402;16.678;2023-10-09T13:34:23;8.13;;;2.50;;
19343;SDS011;9808;52.402;16.678;2023-10-09T13:36:54;5.20;;;2.20;;
19343;SDS011;9808;52.402;16.678;2023-10-09T13:39:25;7.07;;;2.33;;
19343;SDS011;9808;52.402;16.678;2023-10-09T13:41:54;5.40;;;2.53;;
19343;SDS011;9808;52.402;16.678;2023-10-09T13:44:29;3.97;;;2.07;;
19343;SDS011;9808;52.402;16.678;2023-10-09T13:46:58;5.20;;;2.37;;
19343;SDS011;9808;52.402;16.678;2023-10-09T13:49:26;6.10;;;2.33;;
19343;SDS011;9808;52.402;16.678;2023-10-09T13:51:57;5.97;;;2.47;;
19343;SDS011;9808;52.402;16.678;2023-10-09T13:54:26;6.17;;;2.50;;
19343;SDS011;9808;52.402;16.678;2023-10-09T13:57:01;5.00;;;2.40;;
19343;SDS011;9808;52.402;16.678;2023-10-09T13:59:31;5.88;;;2.33;;
19343;SDS011;9808;52.402;16.678;2023-10-09T14:02:01;5.60;;;2.50;;
19343;SDS011;9808;52.402;16.678;2023-10-09T14:04:35;5.67;;;2.33;;
19343;SDS011;9808;52.402;16.678;2023-10-09T14:07:03;5.17;;;2.50;;
19343;SDS011;9808;52.402;16.678;2023-10-09T14:09:32;5.83;;;2.77;;
19343;SDS011;9808;52.402;16.678;2023-10-09T14:12:11;5.73;;;2.37;;
19343;SDS011;9808;52.402;16.678;2023-10-09T14:14:42;5.80;;;2.87;;
19343;SDS011;9808;52.402;16.678;2023-10-09T14:17:21;8.00;;;3.00;;
19343;SDS011;9808;52.402;16.678;2023-10-09T14:19:52;6.00;;;2.80;;
19343;SDS011;9808;52.402;16.678;2023-10-09T14:22:21;6.50;;;2.77;;
19343;SDS011;9808;52.402;16.678;2023-10-09T14:24:54;6.43;;;2.90;;
19343;SDS011;9808;52.402;16.678;2023-10-09T14:27:26;6.87;;;2.77;;
19343;SDS011;9808;52.402;16.678;2023-10-09T14:29:57;7.50;;;3.17;;
19343;SDS011;9808;52.402;16.678;2023-10-09T14:32:27;7.13;;;2.87;;
19343;SDS011;9808;52.402;16.678;2023-10-09T14:34:55;7.97;;;3.60;;
19343;SDS011;9808;52.402;16.678;2023-10-09T14:37:27;9.33;;;3.43;;
19343;SDS011;9808;52.402;16.678;2023-10-09T14:39:55;6.40;;;3.00;;
19343;SDS011;9808;52.402;16.678;2023-10-09T14:42:23;7.10;;;2.90;;
19343;SDS011;9808;52.402;16.678;2023-10-09T14:44:54;9.20;;;4.23;;
19343;SDS011;9808;52.402;16.678;2023-10-09T14:47:22;9.97;;;4.27;;
19343;SDS011;9808;52.402;16.678;2023-10-09T14:49:49;10.23;;;4.83;;
19343;SDS011;9808;52.402;16.678;2023-10-09T14:52:20;9.20;;;4.23;;
19343;SDS011;9808;52.402;16.678;2023-10-09T14:54:47;9.07;;;3.53;;
19343;SDS011;9808;52.402;16.678;2023-10-09T14:57:17;7.37;;;3.63;;
19343;SDS011;9808;52.402;16.678;2023-10-09T14:59:44;10.27;;;3.93;;
19343;SDS011;9808;52.402;16.678;2023-10-09T15:02:12;7.80;;;3.50;;
19343;SDS011;9808;52.402;16.678;2023-10-09T15:04:41;7.43;;;3.50;;
19343;SDS011;9808;52.402;16.678;2023-10-09T15:07:08;8.43;;;4.10;;
19343;SDS011;9808;52.402;16.678;2023-10-09T15:09:36;11.53;;;5.37;;
19343;SDS011;9808;52.402;16.678;2023-10-09T15:12:06;11.73;;;5.40;;
19343;SDS011;9808;52.402;16.678;2023-10-09T15:14:34;10.87;;;5.40;;
19343;SDS011;9808;52.402;16.678;2023-10-09T15:17:01;16.93;;;7.20;;
19343;SDS011;9808;52.402;16.678;2023-10-09T15:19:29;12.57;;;6.63;;
19343;SDS011;9808;52.402;16.678;2023-10-09T15:21:57;18.00;;;8.30;;
19343;SDS011;9808;52.402;16.678;2023-10-09T15:24:26;15.10;;;7.53;;
19343;SDS011;9808;52.402;16.678;2023-10-09T15:26:56;13.43;;;7.00;;
19343;SDS011;9808;52.402;16.678;2023-10-09T15:29:25;13.43;;;6.77;;
19343;SDS011;9808;52.402;16.678;2023-10-09T15:31:57;16.03;;;8.10;;
19343;SDS011;9808;52.402;16.678;2023-10-09T15:34:31;21.33;;;10.07;;
19343;SDS011;9808;52.402;16.678;2023-10-09T15:37:02;19.07;;;10.40;;
19343;SDS011;9808;52.402;16.678;2023-10-09T15:39:35;16.43;;;8.70;;
19343;SDS011;9808;52.402;16.678;2023-10-09T15:42:03;18.60;;;9.23;;
19343;SDS011;9808;52.402;16.678;2023-10-09T15:44:33;16.67;;;7.90;;
19343;SDS011;9808;52.402;16.678;2023-10-09T15:47:03;14.43;;;7.30;;
19343;SDS011;9808;52.402;16.678;2023-10-09T15:49:35;17.47;;;8.03;;
19343;SDS011;9808;52.402;16.678;2023-10-09T15:52:08;24.37;;;10.77;;
19343;SDS011;9808;52.402;16.678;2023-10-09T15:54:35;29.43;;;13.33;;
19343;SDS011;9808;52.402;16.678;2023-10-09T15:57:03;25.13;;;13.17;;
19343;SDS011;9808;52.402;16.678;2023-10-09T15:59:38;32.70;;;15.57;;